createdAt,value
2018-12-17T00:01:52.179Z,13.80
2018-12-17T00:04:20.376Z,13.20
2018-12-17T00:06:48.555Z,13.70
2018-12-17T00:09:17.158Z,13.07
2018-12-17T00:11:45.372Z,13.33
2018-12-17T00:14:13.569Z,13.87
2018-12-17T00:16:41.791Z,13.50
2018-12-17T00:19:10.020Z,12.33
2018-12-17T00:21:38.277Z,12.33
2018-12-17T00:24:06.459Z,12.67
2018-12-17T00:26:34.683Z,12.97
2018-12-17T00:29:02.859Z,12.20
2018-12-17T00:31:31.057Z,11.97
2018-12-17T00:33:59.248Z,12.50
2018-12-17T00:36:27.497Z,11.17
2018-12-17T00:38:55.740Z,11.73
2018-12-17T00:41:23.997Z,12.00
2018-12-17T00:43:52.586Z,11.53
2018-12-17T00:46:20.833Z,11.90
2018-12-17T00:48:49.129Z,11.10
2018-12-17T00:51:17.317Z,11.70
2018-12-17T00:53:45.641Z,11.20
2018-12-17T00:56:13.914Z,11.00
2018-12-17T00:58:42.207Z,10.10
2018-12-17T01:01:10.451Z,10.53
2018-12-17T01:03:38.662Z,10.97
2018-12-17T01:06:06.890Z,10.93
2018-12-17T01:08:35.152Z,11.03
2018-12-17T01:11:03.482Z,11.73
2018-12-17T01:13:31.794Z,10.07
2018-12-17T01:16:05.477Z,11.23
2018-12-17T01:18:33.646Z,10.07
2018-12-17T01:21:02.179Z,11.93
2018-12-17T01:23:30.329Z,11.00
2018-12-17T01:25:58.813Z,10.57
2018-12-17T01:28:26.976Z,10.13
2018-12-17T01:30:55.173Z,11.80
2018-12-17T01:33:23.322Z,10.83
2018-12-17T01:35:51.472Z,10.03
2018-12-17T01:38:19.701Z,10.73
2018-12-17T01:40:47.908Z,10.60
2018-12-17T01:43:16.092Z,11.53
2018-12-17T01:45:44.331Z,11.53
2018-12-17T01:48:12.557Z,11.33
2018-12-17T01:50:40.852Z,11.63
2018-12-17T01:53:09.038Z,10.20
2018-12-17T01:55:37.222Z,10.33
2018-12-17T01:58:05.430Z,10.13
2018-12-17T02:00:33.731Z,11.50
2018-12-17T02:03:02.067Z,10.57
2018-12-17T02:05:30.227Z,10.53
2018-12-17T02:07:58.444Z,10.20
2018-12-17T02:10:26.783Z,11.10
2018-12-17T02:12:54.970Z,10.83
2018-12-17T02:15:24.286Z,11.60
2018-12-17T02:17:52.457Z,11.00
2018-12-17T02:20:20.661Z,10.93
2018-12-17T02:22:48.917Z,11.20
2018-12-17T02:25:17.130Z,11.73
2018-12-17T02:27:45.328Z,12.37
2018-12-17T02:30:13.654Z,11.80
2018-12-17T02:32:41.806Z,12.07
2018-12-17T02:35:10.134Z,11.53
2018-12-17T02:37:38.337Z,10.80
2018-12-17T02:40:07.299Z,12.33
2018-12-17T02:42:35.492Z,13.23
2018-12-17T02:45:03.985Z,12.07
2018-12-17T02:47:32.216Z,12.60
2018-12-17T02:50:00.426Z,11.97
2018-12-17T02:52:28.773Z,12.53
2018-12-17T02:54:57.007Z,12.30
2018-12-17T02:57:25.291Z,12.40
2018-12-17T02:59:53.519Z,12.77
2018-12-17T03:02:21.743Z,12.37
2018-12-17T03:04:50.014Z,12.03
2018-12-17T03:07:18.283Z,12.43
2018-12-17T03:09:46.467Z,13.57
2018-12-17T03:12:14.732Z,12.70
2018-12-17T03:14:42.890Z,12.87
2018-12-17T03:17:11.167Z,12.47
2018-12-17T03:19:39.393Z,13.30
2018-12-17T03:22:07.575Z,13.00
2018-12-17T03:24:35.760Z,13.03
2018-12-17T03:27:03.955Z,12.47
2018-12-17T03:29:32.253Z,13.23
2018-12-17T03:32:00.651Z,13.17
2018-12-17T03:34:28.892Z,11.53
2018-12-17T03:36:57.071Z,11.93
2018-12-17T03:39:25.583Z,11.77
2018-12-17T03:41:53.773Z,13.70
2018-12-17T03:44:21.902Z,11.90
2018-12-17T03:46:50.125Z,12.37
2018-12-17T03:49:18.324Z,12.07
2018-12-17T03:51:46.462Z,12.43
2018-12-17T03:54:14.713Z,12.20
2018-12-17T03:56:42.894Z,11.67
2018-12-17T03:59:11.140Z,10.97
2018-12-17T04:01:39.348Z,11.27
2018-12-17T04:04:07.545Z,10.73
2018-12-17T04:06:35.768Z,11.33
2018-12-17T04:09:05.670Z,10.77
2018-12-17T04:11:34.008Z,12.20
2018-12-17T04:14:02.198Z,11.20
2018-12-17T04:16:30.373Z,11.70
2018-12-17T04:18:58.704Z,11.20
2018-12-17T04:21:26.869Z,11.43
2018-12-17T04:23:55.168Z,11.20
2018-12-17T04:26:23.349Z,10.87
2018-12-17T04:28:51.582Z,11.17
2018-12-17T04:31:19.837Z,10.93
2018-12-17T04:33:48.047Z,12.30
2018-12-17T04:36:16.230Z,11.40
2018-12-17T04:38:44.501Z,12.03
2018-12-17T04:41:12.683Z,10.63
2018-12-17T04:43:40.887Z,11.50
2018-12-17T04:46:09.104Z,12.03
2018-12-17T04:48:37.327Z,12.00
2018-12-17T04:51:06.554Z,11.97
2018-12-17T04:53:35.001Z,12.13
2018-12-17T04:56:03.225Z,11.23
2018-12-17T04:58:31.482Z,12.30
2018-12-17T05:00:59.720Z,11.20
2018-12-17T05:03:27.922Z,10.50
2018-12-17T05:05:56.105Z,11.17
2018-12-17T05:08:24.322Z,11.63
2018-12-17T05:10:52.501Z,11.27
2018-12-17T05:13:20.732Z,11.93
2018-12-17T05:15:49.313Z,11.37
2018-12-17T05:18:17.618Z,12.73
2018-12-17T05:20:45.809Z,12.63
2018-12-17T05:23:14.068Z,13.50
2018-12-17T05:25:42.241Z,12.60
2018-12-17T05:28:10.442Z,13.67
2018-12-17T05:30:38.677Z,14.10
2018-12-17T05:33:07.120Z,13.97
2018-12-17T05:35:35.943Z,12.93
2018-12-17T05:38:04.289Z,13.90
2018-12-17T05:40:32.493Z,13.17
2018-12-17T05:43:00.821Z,13.10
2018-12-17T05:45:29.111Z,13.87
2018-12-17T05:47:57.358Z,13.47
2018-12-17T05:50:25.529Z,13.30
2018-12-17T05:52:53.698Z,12.80
2018-12-17T05:55:21.881Z,14.10
2018-12-17T05:57:50.079Z,13.67
2018-12-17T06:00:18.320Z,14.77
2018-12-17T06:02:46.632Z,19.23
2018-12-17T06:05:14.888Z,19.43
2018-12-17T06:07:43.201Z,14.03
2018-12-17T06:10:11.414Z,17.13
2018-12-17T06:12:39.641Z,19.10
2018-12-17T06:15:08.061Z,17.53
2018-12-17T06:17:36.268Z,15.20
2018-12-17T06:20:05.222Z,13.53
2018-12-17T06:22:33.408Z,13.33
2018-12-17T06:25:01.691Z,15.80
2018-12-17T06:27:36.621Z,15.87
2018-12-17T06:30:00.141Z,16.00
2018-12-17T06:32:28.324Z,15.20
2018-12-17T06:34:56.534Z,13.80
2018-12-17T06:37:24.765Z,12.93
2018-12-17T06:39:52.985Z,12.80
2018-12-17T06:42:21.239Z,14.10
2018-12-17T06:44:52.595Z,12.40
2018-12-17T06:47:20.786Z,12.30
2018-12-17T06:49:49.014Z,12.80
2018-12-17T06:52:17.186Z,12.67
2018-12-17T06:54:45.396Z,12.43
2018-12-17T06:57:13.690Z,11.53
2018-12-17T06:59:42.890Z,12.53
2018-12-17T07:02:11.726Z,12.47
2018-12-17T07:04:39.944Z,12.10
2018-12-17T07:07:08.128Z,13.57
2018-12-17T07:09:36.335Z,12.83
2018-12-17T07:12:04.588Z,13.00
2018-12-17T07:14:36.477Z,13.97
2018-12-17T07:17:03.108Z,13.00
2018-12-17T07:19:31.254Z,15.43
2018-12-17T07:21:59.474Z,16.27
2018-12-17T07:24:27.665Z,19.83
2018-12-17T07:26:55.850Z,18.97
2018-12-17T07:29:24.029Z,19.37
2018-12-17T07:31:52.198Z,16.97
2018-12-17T07:34:20.442Z,16.43
2018-12-17T07:36:48.723Z,16.13
2018-12-17T07:39:17.051Z,14.87
2018-12-17T07:41:45.275Z,15.13
2018-12-17T07:44:13.444Z,14.60
2018-12-17T07:46:41.654Z,13.97
2018-12-17T07:49:09.915Z,12.13
2018-12-17T07:51:38.126Z,11.60
2018-12-17T07:54:06.275Z,12.17
2018-12-17T07:56:34.495Z,12.27
2018-12-17T07:59:02.816Z,11.17
2018-12-17T08:01:31.030Z,12.43
2018-12-17T08:03:59.254Z,11.70
2018-12-17T08:06:27.436Z,11.13
2018-12-17T08:08:55.679Z,12.03
2018-12-17T08:11:24.016Z,13.70
2018-12-17T08:13:52.336Z,14.20
2018-12-17T08:16:20.558Z,13.67
2018-12-17T08:18:49.844Z,14.30
2018-12-17T08:21:18.304Z,13.40
2018-12-17T08:23:46.584Z,13.27
2018-12-17T08:26:14.850Z,11.70
2018-12-17T08:28:43.074Z,11.20
2018-12-17T08:31:11.306Z,11.00
2018-12-17T08:33:39.484Z,10.67
2018-12-17T08:36:08.014Z,10.40
2018-12-17T08:38:36.261Z,10.40
2018-12-17T08:41:04.431Z,9.83
2018-12-17T08:43:32.718Z,12.43
2018-12-17T08:46:01.077Z,11.03
2018-12-17T08:48:29.332Z,10.20
2018-12-17T08:50:57.635Z,10.73
2018-12-17T08:53:25.850Z,11.97
2018-12-17T08:55:54.020Z,10.40
2018-12-17T08:58:22.600Z,10.50
2018-12-17T09:00:50.852Z,10.10
2018-12-17T09:03:19.150Z,10.00
2018-12-17T09:05:47.337Z,9.13
2018-12-17T09:08:15.497Z,9.77
2018-12-17T09:10:43.785Z,9.00
2018-12-17T09:13:12.051Z,9.23
2018-12-17T09:15:40.270Z,8.40
2018-12-17T09:18:08.474Z,8.60
2018-12-17T09:20:36.852Z,8.87
2018-12-17T09:23:05.085Z,9.60
2018-12-17T09:25:33.378Z,8.00
2018-12-17T09:28:01.640Z,7.63
2018-12-17T09:30:29.876Z,8.33
2018-12-17T09:32:58.010Z,7.97
2018-12-17T09:35:26.199Z,7.67
2018-12-17T09:37:54.388Z,8.43
2018-12-17T09:40:22.592Z,8.07
2018-12-17T09:42:50.874Z,8.33
2018-12-17T09:45:19.165Z,7.47
2018-12-17T09:47:47.366Z,7.33
2018-12-17T09:50:16.699Z,7.13
2018-12-17T09:52:45.225Z,7.40
2018-12-17T09:55:13.392Z,7.13
2018-12-17T09:57:41.570Z,6.30
2018-12-17T10:00:10.023Z,7.87
2018-12-17T10:02:38.240Z,7.20
2018-12-17T10:05:06.659Z,7.73
2018-12-17T10:07:34.830Z,6.83
2018-12-17T10:10:03.594Z,6.77
2018-12-17T10:12:31.769Z,8.27
2018-12-17T10:14:59.989Z,8.50
2018-12-17T10:17:28.188Z,7.20
2018-12-17T10:19:56.380Z,6.30
2018-12-17T10:22:25.532Z,5.77
2018-12-17T10:24:54.677Z,6.20
2018-12-17T10:27:22.970Z,5.60
2018-12-17T10:29:51.195Z,5.87
2018-12-17T10:32:19.394Z,5.90
2018-12-17T10:34:48.018Z,6.30
2018-12-17T10:37:16.205Z,6.37
2018-12-17T10:39:44.347Z,6.30
2018-12-17T10:42:12.567Z,6.20
2018-12-17T10:44:40.862Z,6.00
2018-12-17T10:47:09.065Z,6.07
2018-12-17T10:49:37.210Z,6.10
2018-12-17T10:52:05.398Z,6.10
2018-12-17T10:54:33.646Z,6.07
2018-12-17T10:57:01.817Z,5.77
2018-12-17T10:59:30.006Z,5.47
2018-12-17T11:02:06.313Z,5.83
2018-12-17T11:04:38.846Z,5.30
2018-12-17T11:07:07.094Z,4.70
2018-12-17T11:09:35.262Z,4.40
2018-12-17T11:12:03.593Z,4.70
2018-12-17T11:14:31.778Z,4.73
2018-12-17T11:17:00.076Z,4.63
2018-12-17T11:19:28.380Z,4.50
2018-12-17T11:21:56.595Z,3.87
2018-12-17T11:24:24.858Z,4.30
2018-12-17T11:26:53.072Z,3.80
2018-12-17T11:29:21.283Z,3.57
2018-12-17T11:31:49.465Z,3.27
2018-12-17T11:34:17.676Z,3.37
2018-12-17T11:36:45.923Z,3.93
2018-12-17T11:39:14.106Z,3.30
2018-12-17T11:41:42.358Z,3.43
2018-12-17T11:44:10.566Z,3.37
2018-12-17T11:46:38.850Z,3.00
2018-12-17T11:49:07.042Z,2.97
2018-12-17T11:51:35.181Z,2.67
2018-12-17T11:54:03.478Z,2.80
2018-12-17T11:57:43.657Z,2.73
2018-12-17T12:00:12.003Z,2.80
2018-12-17T12:02:40.225Z,2.67
2018-12-17T12:05:08.477Z,2.80
2018-12-17T12:07:36.666Z,3.20
2018-12-17T12:10:05.349Z,3.77
2018-12-17T12:12:33.574Z,3.87
2018-12-17T12:15:01.750Z,4.33
2018-12-17T12:17:30.081Z,4.33
2018-12-17T12:19:58.269Z,4.13
2018-12-17T12:22:26.621Z,4.50
2018-12-17T12:24:54.820Z,3.63
2018-12-17T12:27:23.328Z,3.73
2018-12-17T12:29:51.918Z,3.33
2018-12-17T12:32:20.158Z,3.83
2018-12-17T12:34:48.438Z,3.67
2018-12-17T12:37:16.600Z,4.23
2018-12-17T12:39:44.844Z,3.87
2018-12-17T12:42:13.085Z,3.40
2018-12-17T12:44:41.513Z,2.17
2018-12-17T12:47:09.782Z,2.37
2018-12-17T12:49:37.996Z,1.67
2018-12-17T12:52:06.185Z,1.30
2018-12-17T12:54:34.397Z,0.80
2018-12-17T12:57:02.660Z,1.40
2018-12-17T12:59:30.809Z,1.10
2018-12-17T13:01:59.046Z,1.33
2018-12-17T13:04:27.263Z,1.00
2018-12-17T13:06:55.434Z,1.33
2018-12-17T13:09:23.634Z,1.30
2018-12-17T13:11:51.881Z,1.50
2018-12-17T13:14:20.190Z,1.27
2018-12-17T13:16:48.364Z,1.10
2018-12-17T13:19:16.545Z,1.90
2018-12-17T13:21:44.800Z,1.40
2018-12-17T13:24:13.073Z,1.67
2018-12-17T13:26:41.262Z,1.43
2018-12-17T13:29:09.499Z,1.50
2018-12-17T13:31:37.634Z,1.10
2018-12-17T13:34:05.919Z,1.30
2018-12-17T13:36:34.147Z,1.23
2018-12-17T13:39:02.408Z,1.50
2018-12-17T13:41:30.660Z,1.60
2018-12-17T13:43:58.833Z,1.30
2018-12-17T13:46:27.121Z,1.60
2018-12-17T13:48:55.666Z,1.50
2018-12-17T13:51:29.319Z,1.33
2018-12-17T13:53:59.812Z,1.20
2018-12-17T13:56:28.794Z,1.37
2018-12-17T13:58:57.309Z,1.20
2018-12-17T14:01:25.594Z,1.40
2018-12-17T14:03:54.232Z,1.33
2018-12-17T14:06:22.510Z,1.57
2018-12-17T14:08:50.819Z,1.40
2018-12-17T14:11:19.000Z,1.60
2018-12-17T14:13:47.449Z,1.10
2018-12-17T14:16:16.348Z,1.40
2018-12-17T14:18:50.549Z,1.73
2018-12-17T14:21:56.183Z,1.50
2018-12-17T14:24:24.337Z,1.30
2018-12-17T14:26:52.565Z,1.50
2018-12-17T14:29:20.760Z,1.90
2018-12-17T14:31:49.081Z,3.13
2018-12-17T14:34:17.325Z,2.00
2018-12-17T14:36:45.495Z,2.13
2018-12-17T14:39:13.827Z,1.90
2018-12-17T14:41:41.986Z,2.20
2018-12-17T14:44:15.696Z,1.53
2018-12-17T14:46:49.362Z,1.40
2018-12-17T14:49:17.588Z,1.40
2018-12-17T14:51:45.830Z,1.50
2018-12-17T14:54:14.064Z,1.60
2018-12-17T14:56:42.265Z,1.30
2018-12-17T14:59:10.446Z,6.07
2018-12-17T15:01:38.686Z,2.70
2018-12-17T15:04:06.861Z,1.73
2018-12-17T15:06:35.197Z,1.70
2018-12-17T15:09:05.245Z,2.60
2018-12-17T15:11:33.465Z,5.50
2018-12-17T15:14:01.771Z,3.37
2018-12-17T15:16:29.967Z,7.90
2018-12-17T15:18:58.278Z,3.30
2018-12-17T15:21:26.512Z,2.07
2018-12-17T15:23:54.845Z,2.37
2018-12-17T15:26:23.261Z,2.00
2018-12-17T15:28:51.483Z,1.87
2018-12-17T15:33:54.233Z,2.37
2018-12-17T15:36:22.457Z,2.10
2018-12-17T15:38:50.606Z,2.70
2018-12-17T15:41:18.787Z,1.90
2018-12-17T15:43:47.067Z,1.87
2018-12-17T15:46:15.318Z,1.60
2018-12-17T15:48:43.558Z,2.60
2018-12-17T15:51:11.802Z,3.57
2018-12-17T15:53:40.003Z,5.43
2018-12-17T15:56:08.237Z,2.83
2018-12-17T15:58:36.448Z,2.83
2018-12-17T16:01:04.722Z,2.13
2018-12-17T16:03:32.970Z,1.93
2018-12-17T16:06:01.168Z,2.03
2018-12-17T16:08:29.384Z,2.30
2018-12-17T16:10:57.575Z,5.73
2018-12-17T16:13:25.774Z,5.87
2018-12-17T16:15:54.060Z,2.13
2018-12-17T16:18:22.276Z,2.23
2018-12-17T16:20:50.437Z,2.30
2018-12-17T16:23:18.617Z,2.43
2018-12-17T16:25:46.924Z,2.27
2018-12-17T16:28:15.076Z,2.30
2018-12-17T16:30:43.297Z,2.30
2018-12-17T16:33:11.516Z,2.53
2018-12-17T16:35:39.804Z,2.73
2018-12-17T16:38:07.977Z,2.43
2018-12-17T16:40:36.264Z,2.40
2018-12-17T16:43:04.657Z,2.53
2018-12-17T16:45:32.978Z,2.67
2018-12-17T16:48:01.165Z,2.83
2018-12-17T16:50:29.409Z,9.10
2018-12-17T16:52:57.656Z,6.00
2018-12-17T16:55:25.918Z,4.57
2018-12-17T16:57:54.119Z,2.90
2018-12-17T17:00:22.300Z,10.67
2018-12-17T17:02:50.509Z,5.87
2018-12-17T17:05:18.730Z,4.03
2018-12-17T17:07:46.945Z,3.27
2018-12-17T17:10:15.298Z,3.80
2018-12-17T17:12:43.602Z,2.97
2018-12-17T17:15:12.275Z,2.40
2018-12-17T17:17:40.534Z,2.90
2018-12-17T17:20:09.686Z,2.47
2018-12-17T17:22:38.161Z,2.97
2018-12-17T17:25:06.688Z,3.10
2018-12-17T17:27:34.865Z,2.50
2018-12-17T17:30:03.254Z,3.13
2018-12-17T17:32:31.526Z,3.10
2018-12-17T17:34:59.736Z,3.20
2018-12-17T17:37:27.955Z,3.30
2018-12-17T17:39:56.238Z,2.90
2018-12-17T17:42:24.453Z,2.90
2018-12-17T17:44:52.636Z,2.67
2018-12-17T17:47:20.845Z,3.07
2018-12-17T17:49:49.140Z,3.20
2018-12-17T17:52:17.395Z,2.93
2018-12-17T17:54:45.560Z,2.83
2018-12-17T17:57:13.757Z,3.80
2018-12-17T17:59:42.024Z,3.53
2018-12-17T18:02:10.262Z,3.50
2018-12-17T18:04:38.452Z,2.87
2018-12-17T18:07:06.664Z,3.73
2018-12-17T18:09:34.866Z,3.30
2018-12-17T18:12:03.018Z,4.20
2018-12-17T18:14:31.225Z,3.40
2018-12-17T18:16:59.425Z,3.30
2018-12-17T18:19:27.694Z,4.93
2018-12-17T18:21:55.901Z,3.53
2018-12-17T18:24:24.042Z,3.00
2018-12-17T18:26:52.308Z,3.30
2018-12-17T18:29:20.645Z,3.57
2018-12-17T18:31:48.806Z,3.27
2018-12-17T18:34:17.164Z,3.30
2018-12-17T18:36:45.366Z,3.40
2018-12-17T18:39:14.270Z,3.83
2018-12-17T18:41:42.626Z,4.07
2018-12-17T18:44:10.812Z,4.23
2018-12-17T18:46:39.152Z,3.23
2018-12-17T18:49:07.392Z,5.33
2018-12-17T18:51:35.698Z,4.73
2018-12-17T18:54:04.068Z,6.23
2018-12-17T18:56:32.457Z,5.73
2018-12-17T18:59:00.906Z,8.00
2018-12-17T19:01:29.142Z,10.67
2018-12-17T19:03:57.369Z,7.77
2018-12-17T19:06:25.641Z,9.97
2018-12-17T19:08:53.932Z,10.47
2018-12-17T19:11:22.125Z,6.80
2018-12-17T19:13:50.454Z,4.73
2018-12-17T19:16:18.790Z,4.27
2018-12-17T19:18:47.037Z,3.90
2018-12-17T19:21:15.241Z,4.13
2018-12-17T19:23:43.765Z,3.77
2018-12-17T19:26:12.054Z,3.23
2018-12-17T19:28:40.290Z,4.07
2018-12-17T19:31:08.578Z,3.43
2018-12-17T19:33:36.744Z,3.63
2018-12-17T19:36:05.045Z,3.37
2018-12-17T19:38:33.285Z,3.90
2018-12-17T19:41:01.488Z,3.70
2018-12-17T19:43:29.694Z,4.43
2018-12-17T19:45:57.874Z,4.13
2018-12-17T19:48:26.090Z,3.87
2018-12-17T19:50:54.423Z,4.27
2018-12-17T19:53:22.603Z,3.77
2018-12-17T19:55:50.809Z,3.50
2018-12-17T19:58:19.086Z,3.50
2018-12-17T20:00:47.378Z,3.60
2018-12-17T20:03:15.751Z,3.27
2018-12-17T20:05:44.100Z,3.37
2018-12-17T20:08:12.337Z,3.43
2018-12-17T20:10:40.553Z,3.17
2018-12-17T20:13:08.890Z,3.50
2018-12-17T20:15:37.163Z,2.87
2018-12-17T20:18:05.585Z,2.93
2018-12-17T20:20:33.773Z,3.07
2018-12-17T20:23:02.068Z,3.50
2018-12-17T20:25:30.246Z,3.00
2018-12-17T20:27:58.479Z,2.90
2018-12-17T20:30:26.661Z,3.70
2018-12-17T20:32:54.901Z,3.87
2018-12-17T20:35:23.171Z,20.00
2018-12-17T20:37:51.413Z,18.77
2018-12-17T20:40:19.614Z,14.53
2018-12-17T20:42:47.838Z,15.63
2018-12-17T20:45:16.135Z,15.30
2018-12-17T20:47:44.383Z,10.87
2018-12-17T20:50:12.595Z,8.87
2018-12-17T20:52:40.785Z,7.90
2018-12-17T20:55:09.253Z,5.40
2018-12-17T20:57:37.528Z,4.90
2018-12-17T21:00:06.361Z,4.57
2018-12-17T21:02:34.660Z,5.67
2018-12-17T21:05:03.018Z,5.37
2018-12-17T21:07:31.309Z,5.50
2018-12-17T21:09:59.551Z,5.23
2018-12-17T21:12:27.776Z,5.00
2018-12-17T21:14:56.025Z,5.43
2018-12-17T21:17:24.217Z,5.87
2018-12-17T21:19:52.454Z,5.50
2018-12-17T21:22:20.644Z,5.53
2018-12-17T21:24:49.072Z,5.80
2018-12-17T21:27:17.315Z,5.60
2018-12-17T21:29:45.524Z,5.60
2018-12-17T21:32:13.928Z,6.13
2018-12-17T21:34:42.108Z,5.20
2018-12-17T21:37:10.384Z,6.13
2018-12-17T21:39:38.651Z,5.63
2018-12-17T21:42:06.863Z,6.93
2018-12-17T21:44:35.075Z,8.10
2018-12-17T21:47:03.478Z,7.33
2018-12-17T21:49:31.722Z,8.43
2018-12-17T21:52:00.070Z,6.63
2018-12-17T21:54:28.303Z,6.83
2018-12-17T21:56:56.639Z,6.17
2018-12-17T21:59:24.849Z,6.70
2018-12-17T22:01:53.045Z,6.30
2018-12-17T22:04:21.226Z,6.13
2018-12-17T22:06:49.424Z,5.23
2018-12-17T22:09:17.691Z,5.47
2018-12-17T22:11:45.919Z,5.63
2018-12-17T22:14:14.096Z,5.47
2018-12-17T22:16:42.324Z,5.80
2018-12-17T22:19:10.480Z,5.97
2018-12-17T22:21:38.737Z,8.93
2018-12-17T22:24:07.103Z,8.00
2018-12-17T22:26:35.363Z,7.30
2018-12-17T22:29:03.629Z,6.87
2018-12-17T22:31:31.834Z,7.17
2018-12-17T22:34:00.040Z,6.60
2018-12-17T22:36:28.291Z,6.70
2018-12-17T22:38:56.461Z,6.27
2018-12-17T22:41:24.650Z,6.37
2018-12-17T22:43:52.936Z,8.30
2018-12-17T22:46:21.219Z,6.60
2018-12-17T22:48:49.477Z,10.53
2018-12-17T22:51:17.661Z,15.03
2018-12-17T22:53:45.913Z,12.13
2018-12-17T22:56:14.128Z,11.70
2018-12-17T22:58:42.703Z,9.27
2018-12-17T23:01:10.963Z,7.87
2018-12-17T23:03:39.132Z,7.40
2018-12-17T23:06:07.380Z,8.90
2018-12-17T23:08:37.194Z,7.97
2018-12-17T23:11:16.819Z,8.80
2018-12-17T23:13:56.370Z,8.47
2018-12-17T23:16:35.772Z,9.10
2018-12-17T23:19:03.042Z,9.90
2018-12-17T23:21:31.411Z,8.17
2018-12-17T23:23:59.733Z,8.23
2018-12-17T23:26:27.961Z,8.77
2018-12-17T23:28:56.326Z,7.63
2018-12-17T23:31:24.618Z,6.40
2018-12-17T23:33:52.926Z,7.27
2018-12-17T23:36:21.314Z,14.63
2018-12-17T23:38:49.532Z,16.03
2018-12-17T23:41:17.842Z,12.07
2018-12-17T23:43:46.049Z,11.17
2018-12-17T23:46:14.223Z,9.07
2018-12-17T23:48:42.451Z,7.37
2018-12-17T23:51:10.647Z,7.53
2018-12-17T23:53:38.927Z,6.83
2018-12-17T23:56:07.182Z,7.60
2018-12-17T23:58:35.410Z,7.53
